Beaver, Wisconsin
Current Conditions -  °F | °C
As of 10:35 AM on Wednesday 26 Nov 2014 (Local Time) from KMNM Reporting Station
Overcast Overcast  
Wind Chill: -6°   Ceiling: 7500
Heat Index: -6°   Visibility: 10mi
Dew Point: -9°   Wind: 3mph
Humidity: 80%   Direction: 280°W
Pressure: 30.19"   Gusts: NA
Location:  45.272°N, 88.1562°W
Report Text: KMNM 261635Z AUTO 28003KT 10SM OVC075 M06/M09 A3019 RMK AO1
Loading
Personal Weather Stations






























Interactive Weather Map New forecast layout! Learn more

10-Day Weather Forecast

Advertisements
Track Severe Weather on mobile